createdAt,value
2023-04-25T00:01:40.317Z,100871.72
2023-04-25T00:04:11.246Z,100868.22
2023-04-25T00:06:43.542Z,100872.44
2023-04-25T00:09:12.462Z,100875.06
2023-04-25T00:11:44.731Z,100877.66
2023-04-25T00:14:16.877Z,100883.75
2023-04-25T00:16:48.853Z,100881.09
2023-04-25T00:19:18.747Z,100891.44
2023-04-25T00:21:50.078Z,100889.72
2023-04-25T00:24:19.798Z,100893.16
2023-04-25T00:26:51.462Z,100887.03
2023-04-25T00:29:22.677Z,100899.13
2023-04-25T00:31:53.896Z,100892.16
2023-04-25T00:34:23.392Z,100888.75
2023-04-25T00:36:58.295Z,100902.72
2023-04-25T00:39:29.336Z,100906.31
2023-04-25T00:42:03.414Z,100906.41
2023-04-25T00:44:39.045Z,100913.38
2023-04-25T00:47:09.124Z,100910.81
2023-04-25T00:49:38.465Z,100911.69
2023-04-25T00:52:08.525Z,100915.19
2023-04-25T00:54:39.728Z,100907.22
2023-04-25T00:57:10.284Z,100909.69
2023-04-25T00:59:47.259Z,100916.56
2023-04-25T01:02:16.807Z,100924.38
2023-04-25T01:04:46.222Z,100919.75
2023-04-25T01:07:23.627Z,100909.78
2023-04-25T01:09:55.939Z,100914.72
2023-04-25T01:12:28.390Z,100905.81
2023-04-25T01:14:58.171Z,100907.41
2023-04-25T01:17:29.751Z,100900.44
2023-04-25T01:20:01.998Z,100903.91
2023-04-25T01:22:36.016Z,100905.69
2023-04-25T01:25:07.126Z,100904.84
2023-04-25T01:27:37.796Z,100907.50
2023-04-25T01:30:09.038Z,100911.09
2023-04-25T01:32:41.057Z,100914.66
2023-04-25T01:35:14.076Z,100916.50
2023-04-25T01:37:49.566Z,100914.84
2023-04-25T01:40:23.211Z,100921.91
2023-04-25T01:43:00.979Z,100915.88
2023-04-25T01:45:34.919Z,100922.03
2023-04-25T01:48:14.627Z,100916.88
2023-04-25T01:50:46.141Z,100920.47
2023-04-25T01:53:19.918Z,100921.41
2023-04-25T01:55:49.426Z,100917.97
2023-04-25T01:58:19.470Z,100922.34
2023-04-25T02:00:52.284Z,100931.97
2023-04-25T02:03:25.167Z,100931.16
2023-04-25T02:05:59.206Z,100923.34
2023-04-25T02:08:36.217Z,100939.06
2023-04-25T02:11:10.260Z,100938.19
2023-04-25T02:13:41.589Z,100941.69
2023-04-25T02:16:11.239Z,100943.47
2023-04-25T02:18:42.968Z,100945.22
2023-04-25T02:21:11.588Z,100959.16
2023-04-25T02:23:42.800Z,100948.72
2023-04-25T02:26:14.404Z,100939.13
2023-04-25T02:28:48.607Z,100948.72
2023-04-25T02:31:19.414Z,100946.94
2023-04-25T02:33:52.244Z,100951.25
2023-04-25T02:36:23.824Z,100938.00
2023-04-25T02:38:58.063Z,100942.16
2023-04-25T02:41:42.367Z,100955.84
2023-04-25T02:44:14.114Z,100950.56
2023-04-25T02:46:43.988Z,100949.59
2023-04-25T02:49:13.639Z,100950.44
2023-04-25T02:51:49.283Z,100962.66
2023-04-25T02:54:25.961Z,100965.38
2023-04-25T02:56:57.699Z,100967.22
2023-04-25T02:59:32.311Z,100969.06
2023-04-25T03:02:02.502Z,100967.31
2023-04-25T03:04:34.754Z,100976.03
2023-04-25T03:07:13.240Z,100974.22
2023-04-25T03:09:46.693Z,100977.66
2023-04-25T03:12:16.611Z,100970.63
2023-04-25T03:14:45.647Z,100974.91
2023-04-25T03:17:15.001Z,100967.06
2023-04-25T03:19:47.891Z,100978.34
2023-04-25T03:22:17.680Z,100978.28
2023-04-25T03:24:48.856Z,100974.78
2023-04-25T03:27:22.000Z,100967.78
2023-04-25T03:29:51.762Z,100963.41
2023-04-25T03:32:23.655Z,100970.28
2023-04-25T03:34:56.514Z,100970.13
2023-04-25T03:37:29.053Z,100972.56
2023-04-25T03:40:02.172Z,100972.38
2023-04-25T03:42:32.469Z,100974.88
2023-04-25T03:45:02.392Z,100979.94
2023-04-25T03:47:31.616Z,100983.19
2023-04-25T03:50:03.609Z,100985.56
2023-04-25T03:52:33.246Z,100994.00
2023-04-25T03:55:06.103Z,100998.94
2023-04-25T03:57:35.795Z,100993.47
2023-04-25T04:00:10.419Z,100997.59
2023-04-25T04:02:40.650Z,100998.25
2023-04-25T04:05:12.872Z,101004.13
2023-04-25T04:07:43.690Z,101004.00
2023-04-25T04:10:15.400Z,101012.56
2023-04-25T04:12:45.808Z,101015.97
2023-04-25T04:15:19.148Z,101028.28
2023-04-25T04:17:50.249Z,101032.03
2023-04-25T04:20:27.940Z,101042.81
2023-04-25T04:22:57.479Z,101040.50
2023-04-25T04:25:32.758Z,101033.28
2023-04-25T04:28:03.085Z,101040.75
2023-04-25T04:30:32.568Z,101037.09
2023-04-25T04:33:05.741Z,101034.41
2023-04-25T04:35:35.076Z,101040.38
2023-04-25T04:38:05.169Z,101046.34
2023-04-25T04:40:36.630Z,101053.19
2023-04-25T04:43:09.934Z,101057.47
2023-04-25T04:45:41.439Z,101051.41
2023-04-25T04:48:13.341Z,101048.75
2023-04-25T04:50:42.459Z,101060.81
2023-04-25T04:53:11.779Z,101053.78
2023-04-25T04:55:44.424Z,101061.63
2023-04-25T04:58:13.566Z,101068.50
2023-04-25T05:00:42.744Z,101065.94
2023-04-25T05:03:13.522Z,101071.97
2023-04-25T05:05:42.409Z,101072.88
2023-04-25T05:08:11.649Z,101073.81
2023-04-25T05:10:51.371Z,101072.22
2023-04-25T05:13:27.917Z,101080.22
2023-04-25T05:15:57.101Z,101084.13
2023-04-25T05:18:28.378Z,101084.66
2023-04-25T05:20:57.973Z,101085.16
2023-04-25T05:23:32.593Z,101089.88
2023-04-25T05:26:05.033Z,101091.97
2023-04-25T05:28:35.833Z,101092.13
2023-04-25T05:31:05.333Z,101102.81
2023-04-25T05:33:38.998Z,101116.03
2023-04-25T05:36:09.208Z,101110.88
2023-04-25T05:38:38.989Z,101105.69
2023-04-25T05:41:09.750Z,101120.31
2023-04-25T05:43:41.035Z,101119.41
2023-04-25T05:46:11.792Z,101112.41
2023-04-25T05:48:43.307Z,101116.69
2023-04-25T05:51:16.010Z,101115.72
2023-04-25T05:53:45.586Z,101111.28
2023-04-25T05:56:17.821Z,101117.19
2023-04-25T05:58:47.435Z,101104.13
2023-04-25T06:01:17.811Z,101117.25
2023-04-25T06:03:47.781Z,101111.38
2023-04-25T06:06:17.702Z,101109.94
2023-04-25T06:08:47.388Z,101113.06
2023-04-25T06:11:18.144Z,101115.34
2023-04-25T06:13:50.221Z,101125.22
2023-04-25T06:16:20.090Z,101163.53
2023-04-25T06:18:51.230Z,101159.72
2023-04-25T06:21:20.751Z,101180.84
2023-04-25T06:23:50.664Z,101145.38
2023-04-25T06:26:22.123Z,101134.59
2023-04-25T06:28:52.448Z,101138.91
2023-04-25T06:31:23.825Z,101145.81
2023-04-25T06:33:57.987Z,101148.31
2023-04-25T06:36:28.892Z,101150.84
2023-04-25T06:38:59.098Z,101148.44
2023-04-25T06:41:30.321Z,101148.75
2023-04-25T06:43:59.728Z,101150.91
2023-04-25T06:46:29.472Z,101144.28
2023-04-25T06:49:02.355Z,101160.22
2023-04-25T06:51:31.986Z,101151.78
2023-04-25T06:54:03.399Z,101157.22
2023-04-25T06:56:34.364Z,101160.94
2023-04-25T06:59:04.031Z,101154.31
2023-04-25T07:01:34.081Z,101153.72
2023-04-25T07:04:05.205Z,101148.84
2023-04-25T07:06:34.387Z,101160.44
2023-04-25T07:09:03.910Z,101160.75
2023-04-25T07:11:33.990Z,101160.41
2023-04-25T07:14:05.677Z,101161.69
2023-04-25T07:16:35.618Z,101164.66
2023-04-25T07:19:06.712Z,101153.53
2023-04-25T07:21:37.531Z,101193.53
2023-04-25T07:24:08.797Z,101187.22
2023-04-25T07:26:39.109Z,101193.06
2023-04-25T07:29:08.735Z,101194.63
2023-04-25T07:31:38.397Z,101191.00
2023-04-25T07:34:08.014Z,101194.53
2023-04-25T07:36:37.161Z,101198.94
2023-04-25T07:39:06.984Z,101192.94
2023-04-25T07:41:37.145Z,101196.53
2023-04-25T07:44:08.461Z,101194.19
2023-04-25T07:46:44.500Z,101203.16
2023-04-25T07:49:15.944Z,101208.44
2023-04-25T07:51:45.490Z,101202.50
2023-04-25T07:54:23.170Z,101201.09
2023-04-25T07:56:53.780Z,101204.03
2023-04-25T07:59:30.240Z,101205.97
2023-04-25T08:02:02.390Z,101200.94
2023-04-25T08:04:31.218Z,101207.94
2023-04-25T08:07:00.178Z,101216.69
2023-04-25T08:09:30.831Z,101226.28
2023-04-25T08:12:02.565Z,101220.97
2023-04-25T08:14:37.048Z,101238.38
2023-04-25T08:17:13.598Z,101237.50
2023-04-25T08:19:42.561Z,101235.75
2023-04-25T08:22:12.061Z,101257.53
2023-04-25T08:24:46.202Z,101251.16
2023-04-25T08:27:14.902Z,101256.00
2023-04-25T08:29:45.409Z,101255.94
2023-04-25T08:32:18.842Z,101260.47
2023-04-25T08:35:03.813Z,101266.16
2023-04-25T08:37:34.383Z,101274.44
2023-04-25T08:40:10.845Z,101297.31
2023-04-25T08:42:41.607Z,101311.63
2023-04-25T08:45:13.648Z,101325.94
2023-04-25T08:47:44.690Z,101315.47
2023-04-25T08:50:14.404Z,101304.13
2023-04-25T08:52:47.354Z,101307.25
2023-04-25T08:55:18.672Z,101302.97
2023-04-25T08:57:50.245Z,101302.34
2023-04-25T09:00:23.379Z,101313.16
2023-04-25T09:02:53.895Z,101320.59
2023-04-25T09:05:26.244Z,101322.56
2023-04-25T09:07:55.287Z,101321.75
2023-04-25T09:10:25.123Z,101321.00
2023-04-25T09:13:07.692Z,101321.16
2023-04-25T09:15:53.132Z,101323.41
2023-04-25T09:18:30.863Z,101332.72
2023-04-25T09:21:14.316Z,101326.25
2023-04-25T09:23:47.793Z,101334.97
2023-04-25T09:26:22.253Z,101331.16
2023-04-25T09:28:54.245Z,101334.22
2023-04-25T09:31:31.220Z,101323.22
2023-04-25T09:34:04.086Z,101323.50
2023-04-25T09:36:33.979Z,101327.16
2023-04-25T09:39:05.170Z,101319.53
2023-04-25T09:41:35.117Z,101321.78
2023-04-25T09:44:05.500Z,101329.16
2023-04-25T09:46:39.060Z,101316.25
2023-04-25T09:49:10.653Z,101316.31
2023-04-25T09:51:43.498Z,101324.16
2023-04-25T09:54:13.186Z,101333.94
2023-04-25T09:56:50.235Z,101348.97
2023-04-25T09:59:24.099Z,101358.50
2023-04-25T10:01:56.950Z,101349.31
2023-04-25T10:04:34.029Z,101358.47
2023-04-25T10:07:07.164Z,101360.00
2023-04-25T10:09:42.437Z,101360.81
2023-04-25T10:12:14.794Z,101363.56
2023-04-25T10:14:44.498Z,101350.63
2023-04-25T10:17:25.655Z,101353.44
2023-04-25T10:19:56.978Z,101359.72
2023-04-25T10:22:34.138Z,101363.41
2023-04-25T10:25:11.438Z,101360.19
2023-04-25T10:27:48.395Z,101363.84
2023-04-25T10:30:18.681Z,101357.03
2023-04-25T10:32:51.977Z,101359.88
2023-04-25T10:35:28.349Z,101368.72
2023-04-25T10:38:04.377Z,101413.38
2023-04-25T10:40:34.923Z,101405.97
2023-04-25T10:43:42.177Z,101419.41
2023-04-25T10:46:20.706Z,101406.22
2023-04-25T10:48:54.088Z,101415.88
2023-04-25T10:51:30.768Z,101407.00
2023-04-25T10:54:04.631Z,101407.84
2023-04-25T10:56:43.221Z,101405.16
2023-04-25T10:59:18.580Z,101403.38
2023-04-25T11:01:50.782Z,101409.78
2023-04-25T11:04:36.422Z,101398.59
2023-04-25T11:07:24.004Z,101397.06
2023-04-25T11:10:00.899Z,101392.00
2023-04-25T11:12:31.485Z,101399.25
2023-04-25T11:15:05.805Z,101397.69
2023-04-25T11:18:03.576Z,101406.56
2023-04-25T11:20:54.567Z,101416.94
2023-04-25T11:23:36.707Z,101435.97
2023-04-25T11:26:14.192Z,101421.50
2023-04-25T11:28:57.676Z,101424.63
2023-04-25T11:32:02.920Z,101421.13
2023-04-25T11:34:54.305Z,101424.69
2023-04-25T11:37:44.548Z,101421.25
2023-04-25T11:40:17.931Z,101415.22
2023-04-25T11:42:58.504Z,101415.56
2023-04-25T11:45:55.323Z,101406.38
2023-04-25T11:48:48.198Z,101409.28
2023-04-25T11:51:43.809Z,101409.34
2023-04-25T11:54:32.921Z,101417.19
2023-04-25T11:57:08.784Z,101418.81
2023-04-25T11:59:47.462Z,101424.00
2023-04-25T12:02:33.481Z,101427.63
2023-04-25T12:05:27.174Z,101414.59
2023-04-25T12:07:59.151Z,101433.03
2023-04-25T12:10:32.994Z,101437.41
2023-04-25T12:13:03.870Z,101434.78
2023-04-25T12:15:39.798Z,101440.06
2023-04-25T12:18:09.642Z,101438.28
2023-04-25T12:20:39.691Z,101446.19
2023-04-25T12:23:18.612Z,101444.44
2023-04-25T12:25:50.086Z,101443.56
2023-04-25T12:28:34.561Z,101449.63
2023-04-25T12:31:06.785Z,101444.41
2023-04-25T12:33:37.153Z,101446.91
2023-04-25T12:36:10.589Z,101444.22
2023-04-25T12:38:41.463Z,101449.44
2023-04-25T12:41:21.062Z,101458.81
2023-04-25T12:43:54.240Z,101457.00
2023-04-25T12:46:25.568Z,101469.69
2023-04-25T12:49:05.328Z,101466.38
2023-04-25T12:51:42.968Z,101461.13
2023-04-25T12:54:13.312Z,101483.84
2023-04-25T12:56:45.210Z,101464.59
2023-04-25T12:59:15.460Z,101447.53
2023-04-25T13:01:45.798Z,101469.56
2023-04-25T13:04:18.005Z,101475.91
2023-04-25T13:06:47.507Z,101473.41
2023-04-25T13:09:17.722Z,101469.78
2023-04-25T13:11:49.745Z,101469.47
2023-04-25T13:14:22.489Z,101475.03
2023-04-25T13:17:01.584Z,101459.59
2023-04-25T13:19:32.225Z,101465.13
2023-04-25T13:22:02.333Z,101480.34
2023-04-25T13:24:33.467Z,101470.78
2023-04-25T13:27:06.243Z,101469.88
2023-04-25T13:29:36.898Z,101462.47
2023-04-25T13:32:08.539Z,101471.66
2023-04-25T13:34:39.484Z,101484.66
2023-04-25T13:37:12.947Z,101483.50
2023-04-25T13:39:44.688Z,101483.00
2023-04-25T13:42:18.648Z,101489.91
2023-04-25T13:44:48.568Z,101472.16
2023-04-25T13:47:18.293Z,101485.38
2023-04-25T13:49:47.882Z,101488.09
2023-04-25T13:52:19.232Z,101488.22
2023-04-25T13:54:49.381Z,101491.78
2023-04-25T13:57:21.056Z,101509.47
2023-04-25T13:59:50.154Z,101488.53
2023-04-25T14:02:21.808Z,101498.78
2023-04-25T14:05:00.900Z,101510.28
2023-04-25T14:07:32.630Z,101505.00
2023-04-25T14:10:02.686Z,101504.91
2023-04-25T14:12:35.036Z,101498.91
2023-04-25T14:15:06.391Z,101494.09
2023-04-25T14:17:36.288Z,101502.28
2023-04-25T14:20:07.119Z,101504.88
2023-04-25T14:22:37.503Z,101509.44
2023-04-25T14:25:11.585Z,101518.34
2023-04-25T14:27:42.720Z,101518.00
2023-04-25T14:30:13.930Z,101506.56
2023-04-25T14:32:44.298Z,101507.09
2023-04-25T14:35:14.470Z,101517.34
2023-04-25T14:37:44.045Z,101513.41
2023-04-25T14:40:17.005Z,101517.06
2023-04-25T14:42:49.158Z,101523.59
2023-04-25T14:45:21.878Z,101521.47
2023-04-25T14:47:51.621Z,101534.84
2023-04-25T14:50:24.872Z,101531.34
2023-04-25T14:52:53.985Z,101529.59
2023-04-25T14:55:27.498Z,101527.81
2023-04-25T14:57:59.981Z,101530.13
2023-04-25T15:00:29.911Z,101540.38
2023-04-25T15:03:00.286Z,101531.91
2023-04-25T15:05:31.006Z,101535.41
2023-04-25T15:08:00.877Z,101543.78
2023-04-25T15:10:32.762Z,101544.06
2023-04-25T15:13:06.895Z,101553.47
2023-04-25T15:15:37.478Z,101557.97
2023-04-25T15:18:07.915Z,101576.63
2023-04-25T15:20:41.332Z,101577.69
2023-04-25T15:23:11.647Z,101571.59
2023-04-25T15:25:42.658Z,101573.16
2023-04-25T15:28:16.315Z,101562.94
2023-04-25T15:30:46.296Z,101557.06
2023-04-25T15:33:16.724Z,101556.22
2023-04-25T15:35:46.034Z,101549.47
2023-04-25T15:38:16.526Z,101559.09
2023-04-25T15:40:46.298Z,101557.69
2023-04-25T15:43:17.517Z,101576.44
2023-04-25T15:45:47.582Z,101575.25
2023-04-25T15:48:17.553Z,101569.78
2023-04-25T15:50:48.891Z,101570.38
2023-04-25T15:53:22.631Z,101565.59
2023-04-25T15:55:52.830Z,101576.44
2023-04-25T15:58:23.472Z,101555.72
2023-04-25T16:00:57.462Z,101562.25
2023-04-25T16:03:28.327Z,101563.69
2023-04-25T16:06:01.825Z,101558.00
2023-04-25T16:08:37.057Z,101547.13
2023-04-25T16:11:06.383Z,101558.59
2023-04-25T16:13:46.084Z,101549.22
2023-04-25T16:16:17.828Z,101564.91
2023-04-25T16:18:47.787Z,101559.47
2023-04-25T16:21:17.839Z,101551.78
2023-04-25T16:23:47.413Z,101564.69
2023-04-25T16:26:17.650Z,101564.56
2023-04-25T16:28:52.906Z,101572.25
2023-04-25T16:31:26.579Z,101564.66
2023-04-25T16:34:00.238Z,101568.88
2023-04-25T16:36:35.330Z,101557.72
2023-04-25T16:39:08.426Z,101570.47
2023-04-25T16:41:37.818Z,101579.13
2023-04-25T16:44:09.776Z,101579.81
2023-04-25T16:46:39.690Z,101575.97
2023-04-25T16:49:10.692Z,101573.78
2023-04-25T16:51:40.448Z,101586.66
2023-04-25T16:54:09.391Z,101594.47
2023-04-25T16:56:39.327Z,101587.94
2023-04-25T16:59:13.974Z,101602.72
2023-04-25T17:01:45.065Z,101589.59
2023-04-25T17:04:17.885Z,101603.56
2023-04-25T17:06:48.833Z,101603.19
2023-04-25T17:09:19.978Z,101612.88
2023-04-25T17:11:50.369Z,101596.88
2023-04-25T17:14:21.293Z,101605.84
2023-04-25T17:16:51.141Z,101604.00
2023-04-25T17:19:24.755Z,101601.13
2023-04-25T17:21:54.465Z,101607.19
2023-04-25T17:24:25.819Z,101607.13
2023-04-25T17:26:57.068Z,101606.63
2023-04-25T17:29:30.729Z,101616.34
2023-04-25T17:32:01.281Z,101614.91
2023-04-25T17:34:32.412Z,101617.13
2023-04-25T17:37:02.082Z,101614.81
2023-04-25T17:39:32.758Z,101627.06
2023-04-25T17:42:02.720Z,101628.84
2023-04-25T17:44:33.620Z,101630.44
2023-04-25T17:47:03.861Z,101627.69
2023-04-25T17:49:35.504Z,101636.28
2023-04-25T17:52:05.441Z,101640.25
2023-04-25T17:54:36.338Z,101645.13
2023-04-25T17:57:08.406Z,101659.56
2023-04-25T17:59:47.496Z,101654.41
2023-04-25T18:02:18.755Z,101651.50
2023-04-25T18:04:48.000Z,101656.41
2023-04-25T18:07:17.485Z,101656.75
2023-04-25T18:09:46.901Z,101657.50
2023-04-25T18:12:20.760Z,101661.50
2023-04-25T18:14:51.493Z,101657.59
2023-04-25T18:17:34.046Z,101670.13
2023-04-25T18:20:07.452Z,101668.59
2023-04-25T18:22:37.614Z,101677.63
2023-04-25T18:25:10.688Z,101683.13
2023-04-25T18:27:43.008Z,101672.91
2023-04-25T18:30:15.906Z,101678.53
2023-04-25T18:32:46.446Z,101690.31
2023-04-25T18:35:18.000Z,101682.91
2023-04-25T18:37:54.071Z,101686.91
2023-04-25T18:40:26.302Z,101692.69
2023-04-25T18:42:56.589Z,101682.75
2023-04-25T18:45:35.827Z,101696.38
2023-04-25T18:48:07.600Z,101698.72
2023-04-25T18:50:38.517Z,101694.94
2023-04-25T18:53:17.537Z,101701.69
2023-04-25T18:55:47.592Z,101713.53
2023-04-25T18:58:17.115Z,101708.09
2023-04-25T19:00:51.268Z,101714.00
2023-04-25T19:03:27.503Z,101715.63
2023-04-25T19:06:01.224Z,101715.50
2023-04-25T19:08:30.773Z,101719.72
2023-04-25T19:11:14.229Z,101728.44
2023-04-25T19:13:57.193Z,101726.72
2023-04-25T19:16:39.619Z,101724.94
2023-04-25T19:19:14.563Z,101728.38
2023-04-25T19:21:46.971Z,101732.59
2023-04-25T19:24:18.085Z,101731.59
2023-04-25T19:26:47.198Z,101734.06
2023-04-25T19:29:19.088Z,101731.22
2023-04-25T19:31:50.935Z,101736.16
2023-04-25T19:34:21.196Z,101732.34
2023-04-25T19:36:52.812Z,101733.75
2023-04-25T19:39:24.592Z,101729.94
2023-04-25T19:41:55.229Z,101722.69
2023-04-25T19:44:31.729Z,101725.91
2023-04-25T19:47:05.813Z,101736.06
2023-04-25T19:49:36.575Z,101736.78
2023-04-25T19:52:07.427Z,101741.84
2023-04-25T19:54:37.914Z,101734.75
2023-04-25T19:57:08.846Z,101732.94
2023-04-25T19:59:38.671Z,101734.59
2023-04-25T20:02:11.142Z,101740.63
2023-04-25T20:04:43.865Z,101743.16
2023-04-25T20:07:14.557Z,101742.91
2023-04-25T20:09:44.883Z,101738.38
2023-04-25T20:12:16.861Z,101745.97
2023-04-25T20:14:46.473Z,101745.78
2023-04-25T20:17:17.614Z,101749.13
2023-04-25T20:19:46.604Z,101748.09
2023-04-25T20:22:17.858Z,101750.69
2023-04-25T20:24:47.457Z,101747.00
2023-04-25T20:27:17.798Z,101761.53
2023-04-25T20:29:48.169Z,101750.88
2023-04-25T20:32:25.507Z,101754.09
2023-04-25T20:34:57.326Z,101749.59
2023-04-25T20:37:37.623Z,101749.38
2023-04-25T20:40:12.021Z,101742.31
2023-04-25T20:42:41.712Z,101749.06
2023-04-25T20:45:13.830Z,101742.91
2023-04-25T20:47:44.745Z,101739.38
2023-04-25T20:50:14.328Z,101739.34
2023-04-25T20:52:45.310Z,101740.91
2023-04-25T20:55:15.075Z,101743.38
2023-04-25T20:57:47.085Z,101742.38
2023-04-25T21:00:19.311Z,101749.22
2023-04-25T21:02:53.253Z,101742.22
2023-04-25T21:05:24.314Z,101741.28
2023-04-25T21:07:54.288Z,101737.84
2023-04-25T21:10:23.792Z,101755.44
2023-04-25T21:12:59.301Z,101752.50
2023-04-25T21:15:30.631Z,101745.84
2023-04-25T21:18:03.435Z,101749.28
2023-04-25T21:20:34.365Z,101750.72
2023-04-25T21:23:04.575Z,101746.00
2023-04-25T21:25:35.286Z,101746.59
2023-04-25T21:28:05.386Z,101751.56
2023-04-25T21:30:37.869Z,101746.13
2023-04-25T21:33:08.548Z,101745.09
2023-04-25T21:35:40.506Z,101754.44
2023-04-25T21:38:12.548Z,101755.06
2023-04-25T21:40:43.577Z,101754.91
2023-04-25T21:43:13.795Z,101753.94
2023-04-25T21:46:09.104Z,101750.41
2023-04-25T21:48:34.337Z,101758.25
2023-04-25T21:51:05.740Z,101757.50
2023-04-25T21:53:35.457Z,101763.00
2023-04-25T21:56:04.503Z,101766.75
2023-04-25T21:58:36.760Z,101762.56
2023-04-25T22:01:06.437Z,101761.63
2023-04-25T22:03:40.105Z,101765.72
2023-04-25T22:06:12.093Z,101763.75
2023-04-25T22:08:44.165Z,101764.34
2023-04-25T22:11:13.776Z,101758.78
2023-04-25T22:13:49.447Z,101766.47
2023-04-25T22:16:20.850Z,101774.97
2023-04-25T22:18:52.664Z,101773.91
2023-04-25T22:21:35.467Z,101774.50
2023-04-25T22:24:05.316Z,101778.78
2023-04-25T22:26:36.886Z,101776.16
2023-04-25T22:29:07.678Z,101777.81
2023-04-25T22:31:37.236Z,101781.19
2023-04-25T22:34:09.920Z,101768.09
2023-04-25T22:36:48.041Z,101773.19
2023-04-25T22:39:21.267Z,101774.69
2023-04-25T22:41:54.916Z,101772.81
2023-04-25T22:44:36.384Z,101769.13
2023-04-25T22:47:06.682Z,101774.22
2023-04-25T22:49:37.233Z,101774.97
2023-04-25T22:52:09.879Z,101773.06
2023-04-25T22:54:41.303Z,101777.22
2023-04-25T22:57:16.891Z,101782.31
2023-04-25T22:59:48.621Z,101779.59
2023-04-25T23:02:19.449Z,101780.38
2023-04-25T23:04:55.907Z,101784.63
2023-04-25T23:07:30.535Z,101787.25
2023-04-25T23:10:01.404Z,101789.03
2023-04-25T23:12:31.927Z,101784.06
2023-04-25T23:15:03.471Z,101784.97
2023-04-25T23:17:37.405Z,101772.75
2023-04-25T23:20:12.326Z,101789.16
2023-04-25T23:22:44.865Z,101796.84
2023-04-25T23:25:20.320Z,101787.38
2023-04-25T23:27:50.569Z,101790.09
2023-04-25T23:30:20.483Z,101795.38
2023-04-25T23:32:55.912Z,101781.53
2023-04-25T23:35:28.949Z,101790.97
2023-04-25T23:37:59.205Z,101793.47
2023-04-25T23:40:32.484Z,101782.03
2023-04-25T23:43:02.876Z,101787.25
2023-04-25T23:45:35.023Z,101788.16
2023-04-25T23:48:06.338Z,101790.78
2023-04-25T23:50:37.805Z,101794.59
2023-04-25T23:53:07.663Z,101800.25
2023-04-25T23:55:39.893Z,101797.25
2023-04-25T23:58:12.480Z,101801.09
